createdAt,value
2022-11-25T00:00:14.175Z,4.50
2022-11-25T00:05:13.016Z,4.88
2022-11-25T00:10:11.962Z,5.00
2022-11-25T00:15:14.542Z,4.20
2022-11-25T00:20:13.864Z,4.57
2022-11-25T00:25:12.571Z,4.55
2022-11-25T00:30:13.756Z,4.70
2022-11-25T00:35:12.442Z,6.20
2022-11-25T00:40:13.460Z,4.88
2022-11-25T00:45:13.779Z,4.43
2022-11-25T00:50:12.502Z,4.75
2022-11-25T00:55:11.234Z,4.75
2022-11-25T01:00:14.142Z,4.90
2022-11-25T01:05:13.438Z,5.15
2022-11-25T01:10:12.570Z,4.55
2022-11-25T01:15:13.210Z,4.63
2022-11-25T01:20:13.016Z,4.00
2022-11-25T01:25:11.761Z,4.18
2022-11-25T01:30:11.401Z,4.13
2022-11-25T01:35:12.369Z,4.38
2022-11-25T01:40:12.154Z,4.15
2022-11-25T01:45:36.097Z,3.83
2022-11-25T01:50:37.927Z,4.45
2022-11-25T01:55:39.990Z,4.38
2022-11-25T02:00:39.408Z,4.30
2022-11-25T02:05:47.498Z,4.10
2022-11-25T02:10:46.439Z,5.43
2022-11-25T02:15:45.225Z,4.05
2022-11-25T02:20:45.653Z,4.80
2022-11-25T02:25:47.937Z,4.95
2022-11-25T02:30:52.400Z,4.45
2022-11-25T02:35:56.307Z,5.25
2022-11-25T02:41:02.124Z,4.60
2022-11-25T02:46:03.914Z,4.68
2022-11-25T02:51:03.011Z,4.82
2022-11-25T02:56:03.867Z,4.78
2022-11-25T03:01:02.927Z,5.03
2022-11-25T03:06:01.838Z,5.82
2022-11-25T03:11:00.542Z,5.80
2022-11-25T03:16:01.463Z,5.28
2022-11-25T03:21:00.635Z,7.82
2022-11-25T03:25:59.373Z,9.18
2022-11-25T03:30:58.188Z,8.48
2022-11-25T03:35:58.620Z,9.73
2022-11-25T03:40:57.535Z,10.25
2022-11-25T03:45:56.522Z,11.20
2022-11-25T03:50:55.496Z,11.82
2022-11-25T03:55:58.183Z,9.23
2022-11-25T04:01:01.537Z,10.07
2022-11-25T04:06:01.415Z,9.65
2022-11-25T04:11:03.121Z,9.52
2022-11-25T04:16:05.171Z,13.93
2022-11-25T04:21:04.319Z,11.30
2022-11-25T04:26:05.071Z,10.90
2022-11-25T04:31:11.834Z,12.35
2022-11-25T04:36:14.202Z,12.10
2022-11-25T04:41:14.756Z,15.52
2022-11-25T04:51:22.144Z,7.50
2022-11-25T04:56:26.071Z,6.13
2022-11-25T05:01:26.591Z,9.18
2022-11-25T05:06:32.231Z,13.70
2022-11-25T05:11:34.266Z,11.30
2022-11-25T05:16:33.466Z,10.60
2022-11-25T05:21:34.521Z,11.23
2022-11-25T05:26:35.131Z,12.60
2022-11-25T05:31:34.026Z,12.55
2022-11-25T05:36:33.750Z,8.32
2022-11-25T05:41:34.128Z,8.60
2022-11-25T05:46:33.506Z,7.40
2022-11-25T05:51:32.824Z,7.15
2022-11-25T05:56:36.562Z,7.80
2022-11-25T06:01:54.623Z,9.70
2022-11-25T06:06:53.517Z,8.05
2022-11-25T06:11:53.939Z,6.88
2022-11-25T06:16:53.516Z,6.85
2022-11-25T06:22:01.133Z,8.75
2022-11-25T06:27:02.476Z,16.35
2022-11-25T06:32:01.418Z,12.07
2022-11-25T06:37:27.729Z,13.57
2022-11-25T06:42:27.909Z,13.63
2022-11-25T06:47:27.125Z,10.75
2022-11-25T06:52:25.879Z,14.05
2022-11-25T06:57:24.587Z,17.95
2022-11-25T07:02:24.759Z,17.90
2022-11-25T07:07:23.590Z,8.93
2022-11-25T07:12:22.400Z,11.20
2022-11-25T07:17:21.169Z,8.13
2022-11-25T07:22:21.656Z,7.13
2022-11-25T07:27:20.415Z,6.72
2022-11-25T07:32:19.296Z,6.75
2022-11-25T07:37:18.068Z,6.78
2022-11-25T07:42:18.740Z,6.85
2022-11-25T07:47:17.772Z,8.30
2022-11-25T07:52:20.543Z,7.95
2022-11-25T07:57:21.291Z,7.65
2022-11-25T08:02:20.197Z,7.85
2022-11-25T08:07:19.126Z,14.95
2022-11-25T08:12:17.974Z,7.78
2022-11-25T08:17:18.160Z,9.32
2022-11-25T08:22:17.215Z,10.27
2022-11-25T08:27:16.092Z,7.50
2022-11-25T08:32:14.816Z,7.57
2022-11-25T08:37:15.074Z,7.05
2022-11-25T08:42:13.917Z,7.00
2022-11-25T08:47:12.704Z,6.70
2022-11-25T08:52:12.403Z,6.80
2022-11-25T08:57:12.797Z,5.65
2022-11-25T09:02:16.018Z,6.25
2022-11-25T09:07:14.907Z,6.57
2022-11-25T09:12:18.888Z,7.65
2022-11-25T09:17:18.360Z,7.00
2022-11-25T09:22:17.180Z,6.65
2022-11-25T09:27:20.128Z,7.57
2022-11-25T09:32:19.138Z,7.93
2022-11-25T09:37:17.949Z,7.97
2022-11-25T09:42:50.971Z,9.27
2022-11-25T09:47:58.044Z,7.05
2022-11-25T09:53:12.331Z,9.65
2022-11-25T09:58:25.946Z,7.53
2022-11-25T10:03:34.458Z,8.43
2022-11-25T10:08:38.733Z,10.90
2022-11-25T10:13:46.764Z,9.00
2022-11-25T10:18:55.001Z,10.00
2022-11-25T10:23:53.947Z,7.40
2022-11-25T10:29:03.297Z,6.32
2022-11-25T10:34:03.553Z,7.75
2022-11-25T10:39:06.358Z,6.82
2022-11-25T10:44:14.106Z,5.85
2022-11-25T10:49:19.667Z,5.43
2022-11-25T10:54:27.198Z,5.38
2022-11-25T10:59:31.502Z,5.65
2022-11-25T11:04:30.717Z,7.65
2022-11-25T11:09:35.878Z,8.02
2022-11-25T11:14:36.321Z,8.15
2022-11-25T11:19:35.356Z,6.30
2022-11-25T11:24:38.093Z,7.05
2022-11-25T11:34:48.910Z,11.88
2022-11-25T11:40:00.883Z,9.73
2022-11-25T11:45:16.204Z,8.43
2022-11-25T11:50:31.182Z,9.73
2022-11-25T11:56:11.878Z,9.60
2022-11-25T12:01:25.379Z,8.77
2022-11-25T12:06:26.637Z,12.20
2022-11-25T12:11:31.284Z,9.20
2022-11-25T12:16:36.632Z,9.55
2022-11-25T12:21:43.221Z,9.55
2022-11-25T12:26:50.665Z,8.07
2022-11-25T12:31:58.003Z,9.20
2022-11-25T12:37:14.832Z,7.55
2022-11-25T12:42:17.736Z,17.58
2022-11-25T12:47:18.070Z,12.27
2022-11-25T12:52:44.035Z,10.05
2022-11-25T12:58:32.242Z,9.30
2022-11-25T13:03:57.564Z,9.43
2022-11-25T13:09:04.105Z,10.45
2022-11-25T13:14:15.707Z,12.82
2022-11-25T13:19:19.561Z,14.65
2022-11-25T13:24:29.913Z,14.43
2022-11-25T13:30:02.867Z,16.02
2022-11-25T13:35:41.247Z,14.35
2022-11-25T13:40:42.166Z,13.70
2022-11-25T13:45:45.704Z,14.02
2022-11-25T13:51:09.992Z,12.52
2022-11-25T13:56:17.067Z,15.38
2022-11-25T14:01:29.976Z,15.20
2022-11-25T14:06:38.437Z,12.13
2022-11-25T14:11:59.932Z,13.93
2022-11-25T14:17:16.455Z,17.23
2022-11-25T14:22:35.901Z,13.45
2022-11-25T14:27:37.529Z,14.50
2022-11-25T14:32:41.678Z,15.70
2022-11-25T14:37:45.514Z,17.42
2022-11-25T14:42:49.877Z,21.20
2022-11-25T14:47:48.742Z,30.88
2022-11-25T14:52:48.574Z,28.73
2022-11-25T14:57:50.695Z,26.52
2022-11-25T15:02:59.018Z,27.60
2022-11-25T15:08:14.752Z,35.78
2022-11-25T15:13:38.136Z,19.88
2022-11-25T15:18:39.548Z,18.55
2022-11-25T15:23:39.414Z,17.23
2022-11-25T15:28:40.382Z,15.40
2022-11-25T15:33:40.378Z,17.40
2022-11-25T15:38:42.792Z,17.95
2022-11-25T15:43:48.228Z,18.40
2022-11-25T15:48:49.647Z,16.38
2022-11-25T15:53:54.740Z,17.70
2022-11-25T15:59:01.313Z,23.15
2022-11-25T16:04:21.183Z,20.15
2022-11-25T16:09:23.396Z,16.70
2022-11-25T16:14:28.904Z,20.08
2022-11-25T16:19:37.782Z,21.95
2022-11-25T16:24:50.784Z,20.83
2022-11-25T16:29:54.031Z,25.43
2022-11-25T16:34:56.290Z,26.67
2022-11-25T16:39:55.116Z,20.67
2022-11-25T16:44:55.250Z,16.33
2022-11-25T16:49:54.110Z,19.50
2022-11-25T16:54:53.050Z,26.58
2022-11-25T16:59:58.708Z,22.35
2022-11-25T17:05:00.957Z,16.10
2022-11-25T17:09:59.813Z,15.68
2022-11-25T17:15:00.552Z,15.50
2022-11-25T17:20:00.973Z,15.10
2022-11-25T17:24:59.877Z,14.45
2022-11-25T17:30:01.644Z,14.18
2022-11-25T17:35:02.056Z,13.27
2022-11-25T17:40:00.954Z,14.50
2022-11-25T17:45:00.278Z,14.50
2022-11-25T17:49:59.102Z,13.40
2022-11-25T17:55:00.724Z,13.38
2022-11-25T18:00:00.592Z,13.13
2022-11-25T18:04:59.490Z,14.00
2022-11-25T18:09:58.348Z,13.40
2022-11-25T18:14:58.969Z,13.45
2022-11-25T18:19:57.756Z,13.23
2022-11-25T18:24:56.572Z,13.93
2022-11-25T18:29:57.311Z,13.00
2022-11-25T18:34:57.544Z,12.77
2022-11-25T18:39:56.298Z,14.68
2022-11-25T18:44:56.065Z,13.65
2022-11-25T18:49:56.510Z,12.18
2022-11-25T18:54:57.047Z,11.73
2022-11-25T19:00:24.366Z,12.85
2022-11-25T19:05:19.761Z,13.50
2022-11-25T19:10:21.271Z,14.63
2022-11-25T19:15:23.724Z,14.13
2022-11-25T19:20:25.122Z,11.38
2022-11-25T19:25:25.745Z,12.10
2022-11-25T19:30:27.139Z,12.95
2022-11-25T19:35:28.709Z,11.90
2022-11-25T19:40:34.670Z,12.75
2022-11-25T19:45:37.789Z,12.23
2022-11-25T19:50:40.131Z,12.23
2022-11-25T19:55:40.603Z,12.13
2022-11-25T20:00:40.047Z,13.05
2022-11-25T20:05:41.060Z,12.65
2022-11-25T20:10:41.391Z,10.68
2022-11-25T20:15:41.423Z,12.13
2022-11-25T20:20:43.419Z,12.43
2022-11-25T20:25:46.185Z,13.23
2022-11-25T20:30:46.475Z,12.27
2022-11-25T20:35:49.675Z,13.60
2022-11-25T20:40:53.066Z,12.23
2022-11-25T20:45:52.902Z,12.35
2022-11-25T20:50:54.158Z,12.15
2022-11-25T20:55:55.111Z,11.55
2022-11-25T21:00:57.666Z,12.40
2022-11-25T21:05:58.407Z,13.43
2022-11-25T21:11:00.227Z,10.98
2022-11-25T21:16:00.027Z,12.57
2022-11-25T21:20:59.407Z,11.73
2022-11-25T21:26:07.017Z,12.50
2022-11-25T21:31:10.993Z,11.95
2022-11-25T21:36:18.729Z,12.63
2022-11-25T21:41:20.915Z,11.35
2022-11-25T21:46:21.309Z,11.52
2022-11-25T21:51:25.123Z,11.13
2022-11-25T21:56:30.269Z,11.82
2022-11-25T22:01:29.733Z,11.32
2022-11-25T22:06:32.317Z,13.13
2022-11-25T22:11:35.576Z,13.95
2022-11-25T22:16:36.877Z,13.85
2022-11-25T22:21:35.727Z,15.10
2022-11-25T22:26:36.042Z,14.05
2022-11-25T22:31:37.594Z,12.98
2022-11-25T22:36:39.933Z,13.18
2022-11-25T22:41:40.168Z,13.05
2022-11-25T22:46:39.000Z,12.20
2022-11-25T22:51:38.417Z,12.48
2022-11-25T22:56:37.197Z,12.18
2022-11-25T23:01:37.467Z,12.70
2022-11-25T23:06:36.282Z,13.10
2022-11-25T23:11:39.851Z,11.60
2022-11-25T23:16:41.975Z,11.57
2022-11-25T23:21:40.849Z,12.45
2022-11-25T23:26:39.840Z,12.82
2022-11-25T23:31:41.627Z,12.23
2022-11-25T23:36:44.728Z,11.43
2022-11-25T23:41:43.594Z,12.32
2022-11-25T23:46:45.457Z,11.35
2022-11-25T23:51:44.337Z,12.00
2022-11-25T23:56:43.434Z,13.02
